Time;durP1;ratioP1;P1;durP2;ratioP2;P2;SDS_P1;SDS_P2;PMS_P1;PMS_P2;Temp;Humidity;BMP_temperature;BMP_pressure;BME280_temperature;BME280_humidity;BME280_pressure;Samples;Min_cycle;Max_cycle;Signal;HPM_P1;HPM_P2
2021/03/13 00:00:14;;;;;;;1.85;0.13;;;15.30;95.40;;;;;;4924661;29;20273;-60
2021/03/13 00:02:43;;;;;;;0.70;0.20;;;15.10;95.00;;;;;;4924971;29;20827;-61
2021/03/13 00:05:13;;;;;;;0.73;0.20;;;15.00;96.10;;;;;;4923057;29;20035;-63
2021/03/13 00:07:40;;;;;;;1.58;0.40;;;15.40;96.40;;;;;;4924121;29;20055;-63
2021/03/13 00:10:07;;;;;;;3.20;0.22;;;15.40;96.20;;;;;;4924712;29;20038;-63
2021/03/13 00:12:34;;;;;;;2.53;0.20;;;15.50;96.80;;;;;;4924642;29;20035;-63
2021/03/13 00:15:01;;;;;;;0.17;0.10;;;15.30;96.40;;;;;;4923734;29;20108;-62
2021/03/13 00:17:27;;;;;;;1.27;0.20;;;15.20;96.10;;;;;;4925634;29;20035;-62
2021/03/13 00:19:54;;;;;;;1.35;0.20;;;15.30;96.50;;;;;;4928884;28;20027;-62
2021/03/13 00:22:21;;;;;;;1.48;0.43;;;15.70;96.80;;;;;;4923281;29;20438;-62
2021/03/13 00:24:51;;;;;;;0.30;0.25;;;15.50;96.20;;;;;;4924041;29;20046;-63
2021/03/13 00:27:18;;;;;;;1.65;0.20;;;15.60;96.40;;;;;;4924304;29;20028;-64
2021/03/13 00:29:44;;;;;;;1.58;0.30;;;15.90;96.20;;;;;;4923484;29;20039;-62
2021/03/13 00:32:11;;;;;;;1.77;0.13;;;15.40;96.10;;;;;;4925541;29;20099;-62
2021/03/13 00:34:38;;;;;;;0.20;0.20;;;15.10;95.90;;;;;;4925268;29;20107;-63
2021/03/13 00:37:05;;;;;;;5.40;0.85;;;14.70;96.80;;;;;;4923983;29;20140;-61
2021/03/13 00:39:31;;;;;;;2.45;0.40;;;14.70;96.90;;;;;;4924692;29;20294;-62
2021/03/13 00:41:58;;;;;;;2.58;0.35;;;14.80;97.10;;;;;;4923912;29;20142;-62
2021/03/13 00:44:25;;;;;;;1.85;0.22;;;14.90;97.90;;;;;;4924976;29;20319;-61
2021/03/13 00:46:51;;;;;;;2.00;0.40;;;14.90;97.60;;;;;;4923252;29;20114;-64
2021/03/13 00:49:18;;;;;;;1.42;0.30;;;14.90;98.00;;;;;;4924527;29;20035;-62
2021/03/13 00:51:45;;;;;;;1.27;0.52;;;14.90;98.50;;;;;;4923908;29;20430;-62
2021/03/13 00:54:11;;;;;;;2.78;0.35;;;14.50;98.30;;;;;;4920618;29;20103;-61
2021/03/13 00:56:38;;;;;;;0.40;0.10;;;14.30;98.90;;;;;;4923528;29;20107;-61
2021/03/13 00:59:05;;;;;;;1.17;0.20;;;14.50;98.90;;;;;;4919241;29;20035;-61
2021/03/13 01:01:31;;;;;;;4.35;0.20;;;14.30;98.60;;;;;;4922056;29;20040;-60
2021/03/13 01:03:58;;;;;;;1.65;0.30;;;14.50;99.10;;;;;;4922830;29;20028;-60
2021/03/13 01:06:24;;;;;;;0.57;0.30;;;14.50;98.10;;;;;;4922025;29;20112;-60
2021/03/13 01:08:51;;;;;;;4.70;0.30;;;14.50;98.10;;;;;;4922876;29;20082;-60
2021/03/13 01:11:18;;;;;;;0.65;0.20;;;14.40;97.70;;;;;;4922694;29;20034;-60
2021/03/13 01:13:45;;;;;;;1.40;0.30;;;14.20;97.60;;;;;;4922834;29;20070;-60
2021/03/13 01:16:12;;;;;;;1.45;0.22;;;14.30;97.50;;;;;;4923729;29;20039;-61
2021/03/13 01:18:39;;;;;;;0.88;0.25;;;14.30;97.60;;;;;;4923786;29;20082;-60
2021/03/13 01:21:05;;;;;;;0.10;0.10;;;14.10;98.30;;;;;;4925420;29;20118;-61
2021/03/13 01:23:32;;;;;;;0.55;0.20;;;14.10;98.50;;;;;;4921178;29;20170;-62
2021/03/13 01:25:58;;;;;;;0.60;0.20;;;14.10;98.50;;;;;;4923689;29;20030;-62
2021/03/13 01:28:25;;;;;;;3.08;0.20;;;14.00;98.90;;;;;;4921971;29;20030;-61
2021/03/13 01:30:52;;;;;;;0.15;0.10;;;14.00;98.50;;;;;;4922313;29;20142;-61
2021/03/13 01:33:18;;;;;;;0.90;0.17;;;13.80;98.10;;;;;;4920426;29;20047;-60
2021/03/13 01:35:45;;;;;;;0.47;0.10;;;13.70;98.60;;;;;;4926769;29;20039;-61
2021/03/13 01:38:12;;;;;;;0.98;0.20;;;13.70;98.40;;;;;;4919764;29;20433;-61
2021/03/13 01:40:39;;;;;;;0.32;0.13;;;13.60;98.40;;;;;;4922972;29;20130;-61
2021/03/13 01:43:06;;;;;;;2.80;0.38;;;13.30;98.30;;;;;;4920736;29;20024;-60
2021/03/13 01:45:33;;;;;;;1.23;0.40;;;13.00;98.80;;;;;;4923364;29;20054;-60
2021/03/13 01:48:00;;;;;;;1.48;0.30;;;12.90;99.30;;;;;;4923650;29;20409;-60
2021/03/13 01:50:26;;;;;;;1.02;0.20;;;12.80;99.90;;;;;;4923086;29;20354;-60
2021/03/13 01:52:53;;;;;;;0.85;0.40;;;12.80;99.90;;;;;;4922696;29;20028;-60
2021/03/13 01:55:20;;;;;;;1.75;0.65;;;12.70;99.90;;;;;;4922723;29;20032;-60
2021/03/13 01:57:47;;;;;;;7.82;1.75;;;12.80;99.90;;;;;;4921898;29;20106;-60
2021/03/13 02:00:16;;;;;;;1.33;0.45;;;12.70;99.90;;;;;;4924061;29;20027;-60
2021/03/13 02:02:44;;;;;;;3.13;0.47;;;12.70;99.90;;;;;;4923166;29;20074;-59
2021/03/13 02:05:22;;;;;;;2.08;1.08;;;12.70;99.90;;;;;;4925239;29;20234;-59
2021/03/13 02:08:27;;;;;;;2.67;0.50;;;12.70;99.90;;;;;;4923186;29;20375;-60
2021/03/13 02:10:56;;;;;;;1.73;0.57;;;12.60;99.90;;;;;;4907620;29;20429;-60
2021/03/13 02:13:44;;;;;;;3.42;0.50;;;12.50;99.90;;;;;;4920431;29;20040;-62
2021/03/13 02:16:28;;;;;;;1.90;0.43;;;12.40;99.90;;;;;;4922657;29;20405;-61
2021/03/13 02:18:58;;;;;;;1.77;0.47;;;12.40;99.90;;;;;;4922675;29;20054;-61
2021/03/13 02:21:29;;;;;;;1.25;0.40;;;12.30;99.90;;;;;;4923447;29;20150;-61
2021/03/13 02:24:43;;;;;;;1.05;0.52;;;12.40;99.90;;;;;;4919722;29;20030;-61
2021/03/13 02:27:22;;;;;;;2.10;0.57;;;12.30;99.90;;;;;;4910505;29;20036;-61
2021/03/13 02:29:51;;;;;;;;;;;12.30;99.90;;;;;;4923336;29;20028;-61
2021/03/13 02:32:42;;;;;;;2.47;0.68;;;12.30;99.90;;;;;;4923291;29;19915;-61
2021/03/13 02:35:18;;;;;;;2.53;0.68;;;12.30;99.90;;;;;;4922605;29;20393;-62
2021/03/13 02:37:50;;;;;;;3.35;0.90;;;12.30;99.90;;;;;;4921020;29;20040;-62
2021/03/13 02:40:20;;;;;;;1.52;0.50;;;12.30;99.90;;;;;;4922948;29;20031;-62
2021/03/13 02:42:53;;;;;;;1.58;0.60;;;12.30;99.90;;;;;;4920815;29;20036;-61
2021/03/13 02:45:28;;;;;;;1.75;0.70;;;12.30;99.90;;;;;;4924986;29;20036;-61
2021/03/13 02:47:56;;;;;;;3.67;0.95;;;12.20;99.90;;;;;;4927397;29;20036;-61
2021/03/13 02:50:25;;;;;;;3.22;0.73;;;12.20;99.90;;;;;;4927258;29;20306;-62
2021/03/13 02:52:54;;;;;;;2.20;0.70;;;12.00;99.90;;;;;;4930336;29;20655;-61
2021/03/13 02:55:23;;;;;;;1.40;0.60;;;12.00;99.90;;;;;;4923933;29;20295;-61
2021/03/13 02:57:54;;;;;;;3.97;0.60;;;12.00;99.90;;;;;;4926029;29;20032;-61
2021/03/13 03:00:22;;;;;;;2.15;0.85;;;11.90;99.90;;;;;;4924666;29;20035;-61
2021/03/13 03:02:57;;;;;;;3.33;1.48;;;11.90;99.90;;;;;;4925087;29;20036;-61
2021/03/13 03:05:27;;;;;;;4.07;1.05;;;12.00;99.90;;;;;;4924675;29;20065;-61
2021/03/13 03:07:55;;;;;;;3.35;0.70;;;12.00;99.90;;;;;;4925183;29;20047;-61
2021/03/13 03:10:25;;;;;;;1.50;0.77;;;11.90;99.90;;;;;;4924415;29;20038;-61
2021/03/13 03:12:54;;;;;;;5.13;0.90;;;11.90;99.90;;;;;;4924567;29;20040;-62
2021/03/13 03:15:25;;;;;;;1.52;0.47;;;11.90;99.90;;;;;;4924472;29;20491;-61
2021/03/13 03:17:54;;;;;;;4.68;0.80;;;11.90;99.90;;;;;;4926244;29;20086;-61
2021/03/13 03:20:22;;;;;;;3.33;0.70;;;11.90;99.90;;;;;;4926250;29;20023;-61
2021/03/13 03:22:50;;;;;;;3.47;0.70;;;11.90;99.90;;;;;;4923998;29;20098;-61
2021/03/13 03:25:16;;;;;;;2.78;1.00;;;11.90;99.90;;;;;;4924072;29;20035;-61
2021/03/13 03:27:52;;;;;;;5.18;0.63;;;11.90;99.90;;;;;;4923379;29;20036;-61
2021/03/13 03:30:24;;;;;;;0.90;0.40;;;11.90;99.90;;;;;;4924101;29;20038;-61
2021/03/13 03:32:51;;;;;;;1.90;0.50;;;11.90;99.90;;;;;;4926603;29;20028;-61
2021/03/13 03:35:19;;;;;;;2.92;1.13;;;11.90;99.90;;;;;;4926208;29;20087;-62
2021/03/13 03:37:47;;;;;;;1.17;0.70;;;12.00;99.90;;;;;;4923321;29;20452;-62
2021/03/13 03:40:16;;;;;;;1.45;0.70;;;12.00;99.90;;;;;;4925098;29;20122;-61
2021/03/13 03:42:53;;;;;;;4.03;0.82;;;12.00;99.90;;;;;;4924681;29;20042;-62
2021/03/13 03:45:22;;;;;;;2.75;0.60;;;12.00;99.90;;;;;;4927214;29;20119;-61
2021/03/13 03:47:50;;;;;;;2.75;1.00;;;12.00;99.90;;;;;;4924524;29;20039;-61
2021/03/13 03:50:20;;;;;;;2.33;0.63;;;12.10;99.90;;;;;;4925924;29;20038;-60
2021/03/13 03:52:52;;;;;;;3.35;0.60;;;12.10;99.90;;;;;;4928952;29;20027;-61
2021/03/13 03:55:20;;;;;;;2.67;0.68;;;12.10;99.90;;;;;;4924861;29;20106;-60
2021/03/13 03:57:48;;;;;;;2.22;0.85;;;12.00;99.90;;;;;;4926007;29;20414;-61
2021/03/13 04:00:17;;;;;;;1.58;0.43;;;12.10;99.90;;;;;;4926221;29;20622;-61
2021/03/13 04:02:45;;;;;;;3.65;1.10;;;12.20;99.90;;;;;;4926116;29;20707;-64
2021/03/13 04:05:14;;;;;;;1.75;0.63;;;12.20;99.90;;;;;;4926073;29;20054;-61
2021/03/13 04:07:41;;;;;;;1.60;0.43;;;12.20;99.90;;;;;;4923670;29;20031;-63
2021/03/13 04:10:09;;;;;;;1.95;0.50;;;12.10;99.90;;;;;;4925381;29;20067;-64
2021/03/13 04:12:39;;;;;;;0.80;0.60;;;12.10;99.90;;;;;;4923615;29;20122;-61
2021/03/13 04:15:08;;;;;;;1.60;0.80;;;11.80;99.90;;;;;;4925493;29;20043;-61
2021/03/13 04:17:37;;;;;;;1.20;0.60;;;11.70;99.90;;;;;;4925918;29;20036;-64
2021/03/13 04:20:04;;;;;;;;;;;11.80;99.90;;;;;;4923629;29;20143;-61
2021/03/13 04:22:33;;;;;;;1.08;0.68;;;11.80;99.90;;;;;;4923936;29;20344;-61
2021/03/13 04:25:05;;;;;;;1.33;0.47;;;12.00;99.90;;;;;;4923888;29;20066;-61
2021/03/13 04:27:32;;;;;;;2.95;0.90;;;11.90;99.90;;;;;;4923971;29;20032;-61
2021/03/13 04:30:00;;;;;;;1.00;0.40;;;12.00;99.90;;;;;;4923241;29;20139;-61
2021/03/13 04:32:28;;;;;;;0.57;0.43;;;11.90;99.90;;;;;;4924206;28;20024;-62
2021/03/13 04:34:55;;;;;;;1.25;0.40;;;12.00;99.90;;;;;;4924180;29;20032;-63
2021/03/13 04:37:23;;;;;;;1.50;0.60;;;12.00;99.90;;;;;;4922306;29;20270;-61
2021/03/13 04:39:50;;;;;;;2.05;0.90;;;12.00;99.90;;;;;;4923004;29;20035;-60
2021/03/13 04:42:17;;;;;;;2.92;0.98;;;11.80;99.90;;;;;;4924481;29;20031;-61
2021/03/13 04:44:44;;;;;;;1.58;1.08;;;11.70;99.90;;;;;;4918593;29;20047;-61
2021/03/13 04:47:12;;;;;;;2.78;1.15;;;11.70;99.90;;;;;;4922793;29;20168;-63
2021/03/13 04:49:39;;;;;;;3.58;1.10;;;11.70;99.90;;;;;;4925010;29;20027;-61
2021/03/13 04:52:06;;;;;;;2.20;1.08;;;11.70;99.90;;;;;;4922790;29;20023;-62
2021/03/13 04:54:33;;;;;;;2.35;1.15;;;11.80;99.90;;;;;;4924948;29;20057;-62
2021/03/13 04:56:59;;;;;;;2.75;1.33;;;11.80;99.90;;;;;;4921755;29;20099;-62
2021/03/13 04:59:26;;;;;;;3.00;1.50;;;11.60;99.90;;;;;;4922435;29;20031;-62
2021/03/13 05:01:53;;;;;;;1.35;1.17;;;11.60;99.90;;;;;;4923351;29;20035;-63
2021/03/13 05:04:20;;;;;;;2.38;0.95;;;11.50;99.90;;;;;;4924548;29;20098;-63
2021/03/13 05:06:46;;;;;;;1.60;1.05;;;11.50;99.90;;;;;;4922492;29;20055;-62
2021/03/13 05:09:19;;;;;;;4.78;1.17;;;11.40;99.90;;;;;;4923602;29;20034;-61
2021/03/13 05:11:57;;;;;;;1.67;0.80;;;11.40;99.90;;;;;;4923258;29;20090;-62
2021/03/13 05:14:24;;;;;;;0.77;0.70;;;11.40;99.90;;;;;;4931017;29;20040;-61
2021/03/13 05:16:51;;;;;;;3.33;1.15;;;11.40;99.90;;;;;;4921587;29;20044;-62
2021/03/13 05:19:18;;;;;;;2.53;0.95;;;11.40;99.90;;;;;;4936246;28;20484;-63
2021/03/13 05:21:44;;;;;;;4.28;1.13;;;11.50;99.90;;;;;;4923344;29;20043;-62
2021/03/13 05:24:11;;;;;;;2.58;0.90;;;11.50;99.90;;;;;;4922584;29;20043;-62
2021/03/13 05:26:38;;;;;;;4.20;1.73;;;11.50;99.90;;;;;;4922799;29;20039;-61
2021/03/13 05:29:05;;;;;;;2.65;1.38;;;11.60;99.90;;;;;;4920785;29;20047;-63
2021/03/13 05:31:33;;;;;;;3.92;0.98;;;11.60;99.90;;;;;;4923749;29;20448;-62
2021/03/13 05:33:59;;;;;;;2.17;0.90;;;11.60;99.90;;;;;;4922995;29;20081;-62
2021/03/13 05:36:26;;;;;;;1.95;0.57;;;11.60;99.90;;;;;;4924192;29;20103;-61
2021/03/13 05:38:53;;;;;;;1.58;0.63;;;11.50;99.90;;;;;;4925775;29;20035;-61
2021/03/13 05:41:20;;;;;;;0.80;0.35;;;11.50;99.90;;;;;;4924367;29;20111;-61
2021/03/13 05:43:48;;;;;;;0.70;0.47;;;11.50;99.90;;;;;;4923818;29;20100;-61
2021/03/13 05:46:18;;;;;;;1.95;0.57;;;11.50;99.90;;;;;;4923933;29;20051;-62
2021/03/13 05:48:45;;;;;;;3.28;0.77;;;11.50;99.90;;;;;;4922021;29;20102;-63
2021/03/13 05:51:15;;;;;;;1.80;0.90;;;11.50;99.90;;;;;;4922031;29;20143;-61
2021/03/13 05:53:42;;;;;;;2.50;0.90;;;11.40;99.90;;;;;;4919762;29;20346;-61
2021/03/13 05:56:09;;;;;;;4.53;0.75;;;11.50;99.90;;;;;;4920445;29;20178;-61
2021/03/13 05:58:39;;;;;;;1.27;0.80;;;11.40;99.90;;;;;;4922854;29;20658;-61
2021/03/13 06:01:07;;;;;;;1.58;0.60;;;11.30;99.90;;;;;;4921606;29;20032;-61
2021/03/13 06:03:35;;;;;;;2.77;0.60;;;11.30;99.90;;;;;;4921664;29;20031;-62
2021/03/13 06:06:06;;;;;;;0.40;0.40;;;11.30;99.90;;;;;;4923034;28;20039;-62
2021/03/13 06:08:36;;;;;;;0.57;0.40;;;11.20;99.90;;;;;;4922331;29;20564;-62
2021/03/13 06:11:03;;;;;;;0.98;0.50;;;11.30;99.90;;;;;;4922791;29;20040;-62
2021/03/13 06:13:29;;;;;;;1.50;0.60;;;11.20;99.90;;;;;;4923764;29;20051;-61
2021/03/13 06:15:56;;;;;;;1.73;0.63;;;11.20;99.90;;;;;;4923297;29;20028;-63
2021/03/13 06:18:23;;;;;;;2.40;0.60;;;11.10;99.90;;;;;;4921135;29;20046;-61
2021/03/13 06:20:49;;;;;;;0.75;0.68;;;11.00;99.90;;;;;;4925976;29;20042;-61
2021/03/13 06:23:16;;;;;;;0.95;0.70;;;11.00;99.90;;;;;;4923423;29;20512;-61
2021/03/13 06:25:44;;;;;;;1.40;0.47;;;10.90;99.90;;;;;;4925926;29;20132;-60
2021/03/13 06:28:20;;;;;;;2.20;1.17;;;10.90;99.90;;;;;;4925234;29;20477;-62
2021/03/13 06:30:51;;;;;;;2.85;1.20;;;10.80;99.90;;;;;;4925102;29;20450;-61
2021/03/13 06:33:23;;;;;;;3.88;0.80;;;10.70;99.90;;;;;;4926060;29;20030;-61
2021/03/13 06:35:51;;;;;;;2.30;0.77;;;10.70;99.90;;;;;;4925101;29;20332;-61
2021/03/13 06:38:21;;;;;;;2.97;1.38;;;10.60;99.90;;;;;;4925595;29;20028;-63
2021/03/13 06:40:49;;;;;;;2.22;1.45;;;10.60;99.90;;;;;;4924692;29;20032;-62
2021/03/13 06:43:29;;;;;;;5.60;1.83;;;10.50;99.90;;;;;;4926932;29;20059;-61
2021/03/13 06:46:07;;;;;;;2.80;1.73;;;10.50;99.90;;;;;;4924998;29;20325;-62
2021/03/13 06:48:36;;;;;;;3.40;2.63;;;10.40;99.90;;;;;;4923024;29;20154;-61
2021/03/13 06:51:28;;;;;;;5.50;2.47;;;10.40;99.90;;;;;;4924595;29;20123;-61
2021/03/13 06:54:12;;;;;;;5.65;2.17;;;10.30;99.90;;;;;;4923492;29;20047;-62
2021/03/13 06:56:45;;;;;;;6.22;3.90;;;10.30;99.90;;;;;;4926155;29;20418;-62
2021/03/13 06:59:22;;;;;;;7.90;3.00;;;10.20;99.90;;;;;;4926667;29;20056;-62
2021/03/13 07:02:00;;;;;;;5.53;3.70;;;10.10;99.90;;;;;;4923699;29;20393;-61
2021/03/13 07:04:32;;;;;;;4.70;3.30;;;10.00;99.90;;;;;;4923203;29;20043;-61
2021/03/13 07:06:59;;;;;;;9.02;5.00;;;10.10;99.90;;;;;;4924555;29;20027;-62
2021/03/13 07:09:45;;;;;;;7.28;4.38;;;10.00;99.90;;;;;;4922912;29;20087;-61
2021/03/13 07:12:25;;;;;;;7.55;2.50;;;10.00;99.90;;;;;;4925528;29;20191;-61
2021/03/13 07:14:53;;;;;;;4.35;2.50;;;10.00;99.90;;;;;;4924524;29;20032;-61
2021/03/13 07:17:20;;;;;;;3.50;1.90;;;9.90;99.90;;;;;;4923001;29;20295;-62
2021/03/13 07:19:47;;;;;;;2.95;1.48;;;10.00;99.90;;;;;;4925465;29;20402;-61
2021/03/13 07:22:14;;;;;;;7.22;2.10;;;9.90;99.90;;;;;;4928228;29;20031;-61
2021/03/13 07:24:43;;;;;;;2.53;1.73;;;9.90;99.90;;;;;;4928049;29;20375;-61
2021/03/13 07:27:11;;;;;;;7.25;3.38;;;10.00;99.90;;;;;;4923697;29;20395;-61
2021/03/13 07:29:41;;;;;;;4.80;3.07;;;10.00;99.90;;;;;;4923892;28;20036;-61
2021/03/13 07:32:17;;;;;;;4.30;2.90;;;9.90;99.90;;;;;;4924658;29;20298;-61
2021/03/13 07:34:46;;;;;;;6.93;4.30;;;9.90;99.90;;;;;;4923313;29;20472;-62
2021/03/13 07:37:20;;;;;;;9.05;6.60;;;9.90;99.90;;;;;;4925151;29;20103;-61
2021/03/13 07:39:50;;;;;;;6.13;2.92;;;9.90;99.90;;;;;;4923166;29;20035;-61
2021/03/13 07:42:20;;;;;;;7.28;4.63;;;9.90;99.90;;;;;;4924618;29;20152;-61
2021/03/13 07:44:48;;;;;;;12.70;5.30;;;9.90;99.90;;;;;;4924146;28;20039;-61
2021/03/13 07:47:17;;;;;;;16.63;6.67;;;9.80;99.90;;;;;;4926238;29;20142;-61
2021/03/13 07:49:44;;;;;;;17.80;10.50;;;9.80;99.90;;;;;;4925058;29;20028;-61
2021/03/13 07:52:13;;;;;;;9.63;6.40;;;9.80;99.90;;;;;;4924435;29;20043;-61
2021/03/13 07:54:47;;;;;;;9.50;6.00;;;9.80;99.90;;;;;;4926659;29;20175;-61
2021/03/13 07:57:15;;;;;;;4.95;2.67;;;9.50;99.90;;;;;;4925425;29;20040;-61
2021/03/13 07:59:53;;;;;;;4.57;1.83;;;9.40;99.90;;;;;;4924835;29;20040;-61
2021/03/13 08:02:32;;;;;;;4.97;2.22;;;9.40;99.90;;;;;;4924926;29;20039;-61
2021/03/13 08:04:59;;;;;;;2.53;1.25;;;9.40;99.90;;;;;;4923228;29;20036;-61
2021/03/13 08:07:49;;;;;;;3.97;2.50;;;9.30;99.90;;;;;;4921547;29;20032;-60
2021/03/13 08:10:52;;;;;;;5.20;1.90;;;9.30;99.90;;;;;;4922839;29;20111;-61
2021/03/13 08:13:28;;;;;;;5.00;2.20;;;9.30;99.90;;;;;;5414523;23;20462;-61
2021/03/13 08:16:14;;;;;;;3.67;2.15;;;9.40;99.90;;;;;;4922464;29;20107;-61
2021/03/13 08:18:50;;;;;;;6.93;3.03;;;9.40;99.90;;;;;;4923499;29;20078;-61
2021/03/13 08:21:20;;;;;;;2.78;1.85;;;9.30;99.90;;;;;;4920601;29;20024;-61
2021/03/13 08:23:52;;;;;;;3.47;1.73;;;9.30;99.90;;;;;;4922703;29;20036;-61
2021/03/13 08:26:20;;;;;;;2.30;1.70;;;9.30;99.90;;;;;;4922019;29;20052;-60
2021/03/13 08:28:50;;;;;;;6.22;3.47;;;9.30;99.90;;;;;;4922995;29;20441;-61
2021/03/13 08:31:27;;;;;;;5.47;2.90;;;9.40;99.90;;;;;;4921459;29;20394;-61
2021/03/13 08:33:55;;;;;;;3.38;1.40;;;9.40;99.90;;;;;;4924582;29;20032;-61
2021/03/13 08:36:26;;;;;;;6.22;1.98;;;9.30;99.90;;;;;;4923928;29;20047;-61
2021/03/13 08:38:57;;;;;;;2.53;1.20;;;9.20;99.90;;;;;;4924415;29;20118;-61
2021/03/13 08:44:21;;;;;;;2.33;1.40;;;9.20;99.90;;;;;;4924051;29;20043;-61
2021/03/13 08:46:49;;;;;;;5.88;1.30;;;9.10;99.90;;;;;;4924432;29;20373;-61
2021/03/13 08:49:23;;;;;;;4.50;1.75;;;9.10;99.90;;;;;;4924199;29;20126;-61
2021/03/13 08:52:09;;;;;;;2.20;1.35;;;9.20;99.90;;;;;;4922958;29;20345;-61
2021/03/13 08:54:48;;;;;;;5.53;2.55;;;9.20;99.90;;;;;;4923729;29;20032;-61
2021/03/13 08:57:39;;;;;;;4.28;1.67;;;9.20;99.90;;;;;;4923998;29;20107;-61
2021/03/13 09:00:09;;;;;;;6.95;1.80;;;9.10;99.90;;;;;;4924056;29;20050;-61
2021/03/13 09:02:40;;;;;;;3.78;1.85;;;9.20;99.90;;;;;;4922093;29;20036;-61
2021/03/13 09:05:13;;;;;;;3.55;1.67;;;9.20;99.90;;;;;;4923632;29;20040;-62
2021/03/13 09:07:51;;;;;;;4.18;1.95;;;9.30;99.90;;;;;;4924732;29;20028;-61
2021/03/13 09:10:19;;;;;;;3.53;1.73;;;9.30;99.90;;;;;;4923617;29;20062;-62
2021/03/13 09:12:47;;;;;;;2.88;1.77;;;9.40;99.90;;;;;;4921909;29;20059;-61
2021/03/13 09:15:15;;;;;;;2.97;1.40;;;9.40;99.90;;;;;;4922576;29;20123;-61
2021/03/13 09:17:42;;;;;;;7.47;2.00;;;9.40;99.90;;;;;;4921422;29;20031;-61
2021/03/13 09:20:12;;;;;;;1.98;1.50;;;9.50;99.90;;;;;;4922742;29;20437;-61
2021/03/13 09:22:43;;;;;;;2.97;1.63;;;9.50;99.90;;;;;;4922699;29;20040;-61
2021/03/13 09:25:16;;;;;;;2.42;1.27;;;9.40;99.90;;;;;;4922762;29;20038;-61
2021/03/13 09:27:43;;;;;;;4.45;1.35;;;9.40;99.90;;;;;;4922581;29;20031;-61
2021/03/13 09:30:15;;;;;;;7.18;1.20;;;9.50;99.90;;;;;;4922197;29;20042;-62
2021/03/13 09:32:44;;;;;;;6.15;1.65;;;9.50;99.90;;;;;;4922071;29;20064;-61
2021/03/13 09:35:12;;;;;;;2.85;1.40;;;9.50;99.90;;;;;;4922367;29;20032;-61
2021/03/13 09:37:41;;;;;;;1.58;1.30;;;9.50;99.90;;;;;;4922020;29;20310;-61
2021/03/13 09:40:09;;;;;;;;;;;9.60;99.90;;;;;;4920413;29;20558;-61
2021/03/13 09:42:36;;;;;;;2.08;1.33;;;9.60;99.90;;;;;;4921182;29;20037;-61
2021/03/13 09:45:07;;;;;;;2.80;1.92;;;9.60;99.90;;;;;;4923237;29;20402;-61
2021/03/13 09:47:54;;;;;;;2.55;1.63;;;9.60;99.90;;;;;;4921475;29;20042;-61
2021/03/13 09:50:32;;;;;;;3.35;1.58;;;9.60;99.90;;;;;;4921774;29;20058;-61
2021/03/13 09:53:01;;;;;;;2.55;1.75;;;9.60;99.90;;;;;;4921444;29;20036;-61
2021/03/13 09:55:30;;;;;;;3.63;1.17;;;9.60;99.90;;;;;;4926005;29;20081;-61
2021/03/13 09:58:02;;;;;;;6.28;1.77;;;9.50;99.90;;;;;;4924507;29;20535;-61
2021/03/13 10:00:29;;;;;;;1.27;0.90;;;9.40;99.90;;;;;;4926958;29;20034;-61
2021/03/13 10:02:58;;;;;;;3.33;1.30;;;9.50;99.90;;;;;;4926530;29;21868;-61
2021/03/13 10:05:30;;;;;;;2.78;1.50;;;9.50;99.90;;;;;;4925234;29;20044;-61
2021/03/13 10:08:03;;;;;;;1.40;0.93;;;9.50;99.90;;;;;;4925836;29;20306;-61
2021/03/13 10:10:30;;;;;;;1.77;1.00;;;9.60;99.90;;;;;;4925550;29;20277;-61
2021/03/13 10:13:05;;;;;;;2.38;1.17;;;9.70;99.90;;;;;;4924609;29;20036;-61
2021/03/13 10:15:33;;;;;;;3.88;1.20;;;9.80;99.90;;;;;;4926068;29;20036;-61
2021/03/13 10:18:14;;;;;;;2.73;1.10;;;9.70;99.90;;;;;;4925695;29;20043;-61
2021/03/13 10:20:50;;;;;;;1.90;1.33;;;9.80;99.90;;;;;;4926865;29;20110;-61
2021/03/13 10:23:35;;;;;;;1.95;1.10;;;9.90;99.90;;;;;;4924895;29;20031;-61
2021/03/13 10:26:15;;;;;;;1.83;1.10;;;9.90;99.90;;;;;;4925232;29;20032;-62
2021/03/13 10:28:50;;;;;;;4.10;1.30;;;9.70;99.90;;;;;;4925552;29;20103;-61
2021/03/13 10:31:25;;;;;;;1.48;0.93;;;9.70;99.90;;;;;;4925956;29;20028;-61
2021/03/13 10:33:52;;;;;;;2.05;1.10;;;9.60;99.90;;;;;;4926144;29;20038;-61
2021/03/13 10:36:40;;;;;;;1.83;1.10;;;9.60;99.90;;;;;;4924931;29;20056;-61
2021/03/13 10:39:06;;;;;;;1.65;0.82;;;9.50;99.90;;;;;;4925693;29;20154;-61
2021/03/13 10:41:33;;;;;;;2.95;1.00;;;9.50;99.90;;;;;;4925862;29;20567;-61
2021/03/13 10:44:00;;;;;;;2.20;1.00;;;9.50;99.90;;;;;;4924625;29;20421;-61
2021/03/13 10:46:36;;;;;;;4.50;1.08;;;9.70;99.90;;;;;;4924689;29;20062;-61
2021/03/13 10:49:05;;;;;;;2.22;1.23;;;9.70;99.90;;;;;;4925943;29;20422;-61
2021/03/13 10:51:43;;;;;;;3.83;0.93;;;9.70;99.90;;;;;;4925455;29;20043;-61
2021/03/13 10:54:45;;;;;;;3.20;0.60;;;9.80;99.90;;;;;;4924484;29;20058;-61
2021/03/13 10:57:11;;;;;;;1.75;1.00;;;9.60;99.90;;;;;;4916712;29;20048;-61
2021/03/13 10:59:38;;;;;;;4.28;1.20;;;9.50;99.90;;;;;;4925836;29;20110;-61
2021/03/13 11:02:05;;;;;;;2.55;0.88;;;9.50;99.90;;;;;;4923488;29;20039;-61
2021/03/13 11:04:31;;;;;;;1.42;0.80;;;9.50;99.90;;;;;;4923399;29;20450;-61
2021/03/13 11:06:59;;;;;;;0.98;0.85;;;9.40;99.90;;;;;;4925034;29;20028;-61
2021/03/13 11:09:26;;;;;;;1.58;0.90;;;9.40;99.90;;;;;;4926025;29;20468;-62
2021/03/13 11:11:52;;;;;;;2.95;0.70;;;9.50;99.90;;;;;;4924890;29;20115;-61
2021/03/13 11:14:19;;;;;;;3.28;1.02;;;9.40;99.90;;;;;;4924734;29;20622;-61
2021/03/13 11:16:47;;;;;;;3.53;0.85;;;9.50;99.90;;;;;;4924726;29;20306;-61
2021/03/13 11:19:14;;;;;;;2.95;0.80;;;9.50;99.90;;;;;;4926047;29;20132;-61
2021/03/13 11:21:41;;;;;;;3.05;0.93;;;9.50;99.90;;;;;;4923902;29;20035;-61
2021/03/13 11:24:08;;;;;;;1.90;0.90;;;9.50;99.90;;;;;;4925084;29;20067;-60
2021/03/13 11:26:35;;;;;;;1.40;0.80;;;9.50;99.90;;;;;;4924797;29;20080;-61
2021/03/13 11:29:02;;;;;;;1.00;0.70;;;9.40;99.90;;;;;;4924529;29;20058;-61
2021/03/13 11:31:29;;;;;;;3.03;0.88;;;9.40;99.90;;;;;;4925962;29;20059;-61
2021/03/13 11:33:56;;;;;;;1.50;1.00;;;9.30;99.90;;;;;;4924968;29;20135;-61
2021/03/13 11:36:22;;;;;;;0.85;0.63;;;9.30;99.90;;;;;;4925009;29;20083;-62
2021/03/13 11:38:49;;;;;;;1.38;0.90;;;9.20;99.90;;;;;;4923706;29;20035;-61
2021/03/13 11:41:16;;;;;;;2.20;1.10;;;9.30;99.90;;;;;;4924881;29;20028;-61
2021/03/13 11:43:44;;;;;;;1.08;0.82;;;9.30;99.90;;;;;;4924807;29;20039;-61
2021/03/13 11:46:12;;;;;;;1.70;0.90;;;9.20;99.90;;;;;;4924459;29;20359;-62
2021/03/13 11:48:41;;;;;;;1.90;1.10;;;9.20;99.90;;;;;;4928063;29;20032;-61
2021/03/13 11:51:08;;;;;;;1.05;0.90;;;9.20;99.90;;;;;;4924210;29;20271;-61
2021/03/13 11:53:35;;;;;;;2.33;1.02;;;9.20;99.90;;;;;;4928681;29;20149;-62
2021/03/13 11:56:01;;;;;;;1.90;0.85;;;9.30;99.90;;;;;;4923597;29;20028;-62
2021/03/13 11:58:28;;;;;;;2.45;1.20;;;9.30;99.90;;;;;;4924481;29;20057;-61
2021/03/13 12:00:55;;;;;;;1.42;0.98;;;9.20;99.90;;;;;;4924547;29;20143;-62
2021/03/13 12:03:21;;;;;;;1.00;0.82;;;9.20;99.90;;;;;;4924066;29;20028;-62
2021/03/13 12:05:48;;;;;;;2.17;0.85;;;9.20;99.90;;;;;;4924011;29;20454;-61
2021/03/13 12:08:15;;;;;;;3.08;1.10;;;9.10;99.90;;;;;;4923816;29;20102;-62
2021/03/13 12:10:42;;;;;;;2.65;1.05;;;9.20;99.90;;;;;;4924056;29;20324;-62
2021/03/13 12:13:09;;;;;;;1.63;1.00;;;9.10;99.90;;;;;;4923256;29;20138;-61
2021/03/13 12:15:35;;;;;;;0.88;0.82;;;9.20;99.90;;;;;;4923733;29;20055;-62
2021/03/13 12:18:02;;;;;;;1.77;0.95;;;9.10;99.90;;;;;;4924530;29;20085;-62
2021/03/13 12:20:29;;;;;;;2.92;1.05;;;9.00;99.90;;;;;;4924042;29;20036;-62
2021/03/13 12:22:56;;;;;;;4.10;1.15;;;9.00;99.90;;;;;;4922880;29;20032;-62
2021/03/13 12:25:22;;;;;;;3.15;1.10;;;9.00;99.90;;;;;;4924159;29;20035;-61
2021/03/13 12:27:49;;;;;;;3.33;0.80;;;9.00;99.90;;;;;;4923499;29;20042;-61
2021/03/13 12:30:16;;;;;;;2.47;1.33;;;8.90;99.90;;;;;;4924616;29;20035;-62
2021/03/13 12:32:43;;;;;;;2.50;0.90;;;9.00;99.90;;;;;;4923558;29;20422;-61
2021/03/13 12:35:10;;;;;;;3.20;1.35;;;9.00;99.90;;;;;;4923256;29;20427;-62
2021/03/13 12:37:39;;;;;;;3.17;1.00;;;9.00;99.90;;;;;;4923537;29;20031;-62
2021/03/13 12:40:08;;;;;;;2.55;0.98;;;9.00;99.90;;;;;;4922536;29;20291;-62
2021/03/13 12:42:35;;;;;;;2.13;1.10;;;9.00;99.90;;;;;;4922956;29;20040;-61
2021/03/13 12:45:03;;;;;;;3.55;1.00;;;9.00;99.90;;;;;;4922936;29;20410;-61
2021/03/13 12:47:30;;;;;;;2.33;0.95;;;9.10;99.90;;;;;;4923302;29;20023;-61
2021/03/13 12:49:56;;;;;;;1.88;1.10;;;9.10;99.90;;;;;;4924530;29;20413;-61
2021/03/13 12:52:23;;;;;;;4.63;1.05;;;9.00;99.90;;;;;;4923916;29;20046;-61
2021/03/13 12:54:51;;;;;;;1.38;0.88;;;9.00;99.90;;;;;;4924420;29;20030;-61
2021/03/13 12:57:17;;;;;;;2.28;1.10;;;9.00;99.90;;;;;;4921877;29;20135;-61
2021/03/13 12:59:45;;;;;;;4.07;1.42;;;9.10;99.90;;;;;;4922036;29;20044;-61
2021/03/13 13:02:12;;;;;;;1.80;1.05;;;9.00;99.90;;;;;;4923004;29;20040;-61
2021/03/13 13:04:39;;;;;;;1.23;0.77;;;9.00;99.90;;;;;;4922802;29;20036;-61
2021/03/13 13:07:05;;;;;;;1.23;0.80;;;9.00;99.90;;;;;;4921080;29;20038;-60
2021/03/13 13:09:32;;;;;;;1.73;0.70;;;9.00;99.90;;;;;;4923615;29;20433;-61